Time;durP1;ratioP1;P1;durP2;ratioP2;P2;SDS_P1;SDS_P2;PMS_P1;PMS_P2;Temp;Humidity;BMP_temperature;BMP_pressure;BME280_temperature;BME280_humidity;BME280_pressure;Samples;Min_cycle;Max_cycle;Signal;HPM_P1;HPM_P2
2019/08/19 00:01:34;;;;;;;8.2;2.6;;;;;;;;;;;;;
2019/08/19 00:03:59;;;;;;;5;2.4;;;;;;;;;;;;;
2019/08/19 00:06:24;;;;;;;5.7;2.2;;;;;;;;;;;;;
2019/08/19 00:08:49;;;;;;;6.5;2.4;;;;;;;;;;;;;
2019/08/19 00:11:14;;;;;;;4.6;2.1;;;;;;;;;;;;;
2019/08/19 00:13:39;;;;;;;4.4;2;;;;;;;;;;;;;
2019/08/19 00:16:04;;;;;;;6.6;2.4;;;;;;;;;;;;;
2019/08/19 00:18:29;;;;;;;4;2.2;;;;;;;;;;;;;
2019/08/19 00:20:55;;;;;;;6.4;2.6;;;;;;;;;;;;;
2019/08/19 00:23:20;;;;;;;5.9;2.3;;;;;;;;;;;;;
2019/08/19 00:25:45;;;;;;;4.1;1.9;;;;;;;;;;;;;
2019/08/19 00:28:10;;;;;;;4.3;2.3;;;;;;;;;;;;;
2019/08/19 00:30:35;;;;;;;6.1;2.4;;;;;;;;;;;;;
2019/08/19 00:33:00;;;;;;;3.5;2.2;;;;;;;;;;;;;
2019/08/19 00:35:25;;;;;;;4.6;2.5;;;;;;;;;;;;;
2019/08/19 00:37:51;;;;;;;7.2;2.8;;;;;;;;;;;;;
2019/08/19 00:40:16;;;;;;;7;3.1;;;;;;;;;;;;;
2019/08/19 00:42:41;;;;;;;7.4;2.9;;;;;;;;;;;;;
2019/08/19 00:45:06;;;;;;;6.1;2.9;;;;;;;;;;;;;
2019/08/19 00:47:31;;;;;;;5.3;2.8;;;;;;;;;;;;;
2019/08/19 00:49:56;;;;;;;7.2;3.2;;;;;;;;;;;;;
2019/08/19 00:52:21;;;;;;;6.9;3.2;;;;;;;;;;;;;
2019/08/19 00:54:46;;;;;;;5.6;2.5;;;;;;;;;;;;;
2019/08/19 00:57:11;;;;;;;4;2.1;;;;;;;;;;;;;
2019/08/19 00:59:36;;;;;;;4.9;2.3;;;;;;;;;;;;;
2019/08/19 01:02:01;;;;;;;5.4;2.3;;;;;;;;;;;;;
2019/08/19 01:04:27;;;;;;;4.5;2.2;;;;;;;;;;;;;
2019/08/19 01:06:52;;;;;;;5.4;2.3;;;;;;;;;;;;;
2019/08/19 01:09:17;;;;;;;6.1;2.4;;;;;;;;;;;;;
2019/08/19 01:11:42;;;;;;;3.4;2.3;;;;;;;;;;;;;
2019/08/19 01:14:07;;;;;;;3.3;2;;;;;;;;;;;;;
2019/08/19 01:16:32;;;;;;;4.1;1.9;;;;;;;;;;;;;
2019/08/19 01:18:57;;;;;;;3.2;1.8;;;;;;;;;;;;;
2019/08/19 01:21:22;;;;;;;2.6;1.8;;;;;;;;;;;;;
2019/08/19 01:23:47;;;;;;;3.6;1.7;;;;;;;;;;;;;
2019/08/19 01:26:12;;;;;;;3.1;1.8;;;;;;;;;;;;;
2019/08/19 01:28:38;;;;;;;5.1;1.9;;;;;;;;;;;;;
2019/08/19 01:31:03;;;;;;;3.9;2.2;;;;;;;;;;;;;
2019/08/19 01:33:28;;;;;;;4.6;2;;;;;;;;;;;;;
2019/08/19 01:35:53;;;;;;;4.1;2.4;;;;;;;;;;;;;
2019/08/19 01:38:18;;;;;;;5.7;2.4;;;;;;;;;;;;;
2019/08/19 01:40:43;;;;;;;5.4;2.1;;;;;;;;;;;;;
2019/08/19 01:43:08;;;;;;;3.5;2.2;;;;;;;;;;;;;
2019/08/19 01:45:33;;;;;;;3.5;2.1;;;;;;;;;;;;;
2019/08/19 01:47:59;;;;;;;3.9;2;;;;;;;;;;;;;
2019/08/19 01:50:23;;;;;;;3.7;2.1;;;;;;;;;;;;;
2019/08/19 01:52:48;;;;;;;3.6;2.2;;;;;;;;;;;;;
2019/08/19 01:55:13;;;;;;;3.5;2.1;;;;;;;;;;;;;
2019/08/19 01:57:38;;;;;;;4.2;2.1;;;;;;;;;;;;;
2019/08/19 02:00:04;;;;;;;3.2;2.3;;;;;;;;;;;;;
2019/08/19 02:02:29;;;;;;;3.2;2.2;;;;;;;;;;;;;
2019/08/19 02:04:54;;;;;;;3.1;2.1;;;;;;;;;;;;;
2019/08/19 02:07:19;;;;;;;3.4;2;;;;;;;;;;;;;
2019/08/19 02:09:44;;;;;;;4;2.1;;;;;;;;;;;;;
2019/08/19 02:12:09;;;;;;;3.1;2.2;;;;;;;;;;;;;
2019/08/19 02:14:34;;;;;;;3.5;2.4;;;;;;;;;;;;;
2019/08/19 02:16:59;;;;;;;3.1;2.3;;;;;;;;;;;;;
2019/08/19 02:19:25;;;;;;;3.9;2.5;;;;;;;;;;;;;
2019/08/19 02:21:50;;;;;;;4.3;2.3;;;;;;;;;;;;;
2019/08/19 02:24:15;;;;;;;3.2;2.3;;;;;;;;;;;;;
2019/08/19 02:29:19;;;;;;;3.9;2.5;;;;;;;17.75;100;960.7413;;;;
2019/08/19 02:31:44;;;;;;;3.7;2.3;;;;;;;17.79;100;960.738;;;;
2019/08/19 02:34:09;;;;;;;4.2;2.3;;;;;;;17.83;100;960.7363;;;;
2019/08/19 02:36:34;;;;;;;2.8;2.2;;;;;;;17.87;100;960.8521;;;;
2019/08/19 02:38:59;;;;;;;4.2;2.4;;;;;;;17.92;100;960.7858;;;;
2019/08/19 02:41:24;;;;;;;4.2;2.8;;;;;;;18.04;100;960.8484;;;;
2019/08/19 02:43:49;;;;;;;3.5;2.4;;;;;;;17.97;100;960.9567;;;;
2019/08/19 02:46:15;;;;;;;3.7;2.5;;;;;;;17.9;100;960.9723;;;;
2019/08/19 02:48:40;;;;;;;3.6;2.5;;;;;;;17.93;100;960.9324;;;;
2019/08/19 02:51:05;;;;;;;3.7;2.8;;;;;;;17.79;100;960.9489;;;;
2019/08/19 02:53:30;;;;;;;3.5;2.5;;;;;;;17.9;100;961.0751;;;;
2019/08/19 02:55:55;;;;;;;3.8;2.5;;;;;;;17.86;100;961.0212;;;;
2019/08/19 02:58:20;;;;;;;3.5;2.5;;;;;;;17.87;100;961.041;;;;
2019/08/19 03:00:45;;;;;;;3.8;2.6;;;;;;;17.88;100;960.9772;;;;
2019/08/19 03:03:10;;;;;;;4.3;2.6;;;;;;;17.87;100;960.9468;;;;
2019/08/19 03:05:35;;;;;;;4.1;2.8;;;;;;;17.79;100;960.9226;;;;
2019/08/19 03:08:00;;;;;;;4.3;2.6;;;;;;;17.81;99.96777;961;;;;
2019/08/19 03:10:25;;;;;;;4.4;2.7;;;;;;;17.8;100;961.048;;;;
2019/08/19 03:12:50;;;;;;;3.8;2.8;;;;;;;17.89;100;961.0103;;;;
2019/08/19 03:15:16;;;;;;;5.9;2.9;;;;;;;17.96;100;960.976;;;;
2019/08/19 03:17:41;;;;;;;4.1;3;;;;;;;17.91;100;961.0248;;;;
2019/08/19 03:20:06;;;;;;;4.5;3.1;;;;;;;17.88;100;960.9623;;;;
2019/08/19 03:22:31;;;;;;;3.9;3.2;;;;;;;17.93;100;961.0379;;;;
2019/08/19 03:24:56;;;;;;;3.8;2.8;;;;;;;17.92;100;961.0595;;;;
2019/08/19 03:27:21;;;;;;;4;2.9;;;;;;;17.91;100;961.0471;;;;
2019/08/19 03:29:46;;;;;;;3.7;3.1;;;;;;;17.92;100;961.0661;;;;
2019/08/19 03:32:12;;;;;;;3.4;2.8;;;;;;;17.9;100;961.0339;;;;
2019/08/19 03:34:37;;;;;;;4.5;3.2;;;;;;;17.84;100;961.0469;;;;
2019/08/19 03:37:02;;;;;;;4.5;3.1;;;;;;;17.85;100;961.055;;;;
2019/08/19 03:39:28;;;;;;;3.1;2.8;;;;;;;17.87;100;961.0632;;;;
2019/08/19 03:41:53;;;;;;;3.9;2.8;;;;;;;17.83;100;961.0056;;;;
2019/08/19 03:44:18;;;;;;;3.6;2.8;;;;;;;17.8;100;960.9326;;;;
2019/08/19 03:46:44;;;;;;;4;3;;;;;;;17.81;100;960.9614;;;;
2019/08/19 03:49:09;;;;;;;3.5;2.8;;;;;;;17.8;100;961.0198;;;;
2019/08/19 03:51:34;;;;;;;3.2;2.9;;;;;;;17.78;100;960.969;;;;
2019/08/19 03:53:59;;;;;;;4.1;2.9;;;;;;;17.71;100;961.022;;;;
2019/08/19 03:56:24;;;;;;;4.2;2.7;;;;;;;17.73;100;960.9844;;;;
2019/08/19 03:58:49;;;;;;;4.3;2.8;;;;;;;17.68;100;960.91;;;;
2019/08/19 04:02:26;;;;;;;4.5;2.7;;;;;;;17.67;100;960.8398;;;;
2019/08/19 04:04:51;;;;;;;3.6;2.9;;;;;;;17.62;100;960.8107;;;;
2019/08/19 04:07:16;;;;;;;4;2.8;;;;;;;17.57;100;960.8125;;;;
2019/08/19 04:09:42;;;;;;;4.7;2.9;;;;;;;17.55;100;960.7623;;;;
2019/08/19 04:12:07;;;;;;;4;2.8;;;;;;;17.61;100;960.757;;;;
2019/08/19 04:14:32;;;;;;;3;2.5;;;;;;;17.57;100;960.698;;;;
2019/08/19 04:16:57;;;;;;;3.7;2.8;;;;;;;17.52;100;960.6439;;;;
2019/08/19 04:19:22;;;;;;;5.9;3.1;;;;;;;17.53;100;960.5294;;;;
2019/08/19 04:21:47;;;;;;;3.9;2.6;;;;;;;17.48;100;960.5411;;;;
2019/08/19 04:24:12;;;;;;;3;2.4;;;;;;;17.5;100;960.5164;;;;
2019/08/19 04:26:37;;;;;;;3.2;2.6;;;;;;;17.46;100;960.532;;;;
2019/08/19 04:29:02;;;;;;;3.7;2.5;;;;;;;17.5;100;960.5625;;;;
2019/08/19 04:31:27;;;;;;;3.8;2.6;;;;;;;17.44;100;960.6181;;;;
2019/08/19 04:33:53;;;;;;;4.4;3;;;;;;;17.58;100;960.6682;;;;
2019/08/19 04:36:18;;;;;;;3.5;2.6;;;;;;;17.54;100;960.5696;;;;
2019/08/19 04:38:43;;;;;;;4;2.9;;;;;;;17.49;100;960.6021;;;;
2019/08/19 04:41:08;;;;;;;5.4;3.1;;;;;;;17.43;100;960.7506;;;;
2019/08/19 04:43:33;;;;;;;2.5;2.2;;;;;;;17.46;100;960.6589;;;;
2019/08/19 04:45:58;;;;;;;3.9;2.7;;;;;;;17.5;100;960.7141;;;;
2019/08/19 04:48:23;;;;;;;4;2.4;;;;;;;17.43;100;960.6568;;;;
2019/08/19 04:50:48;;;;;;;3.4;2.6;;;;;;;17.53;100;960.5531;;;;
2019/08/19 04:53:13;;;;;;;4.3;2.7;;;;;;;17.56;100;960.4814;;;;
2019/08/19 04:55:38;;;;;;;3.7;2.6;;;;;;;17.55;100;960.3823;;;;
2019/08/19 04:58:04;;;;;;;3.7;2.3;;;;;;;17.52;100;960.272;;;;
2019/08/19 05:00:29;;;;;;;3.8;2.3;;;;;;;17.53;100;960.2681;;;;
2019/08/19 05:02:54;;;;;;;3.1;2.2;;;;;;;17.51;100;960.2904;;;;
2019/08/19 05:05:19;;;;;;;3.3;2.4;;;;;;;17.54;100;960.4938;;;;
2019/08/19 05:07:44;;;;;;;6.5;2.6;;;;;;;17.51;100;960.6242;;;;
2019/08/19 05:10:09;;;;;;;3.1;2.3;;;;;;;17.51;100;960.6119;;;;
2019/08/19 05:12:34;;;;;;;3.3;2.3;;;;;;;17.58;100;960.6386;;;;
2019/08/19 05:14:59;;;;;;;3.3;1.9;;;;;;;17.57;100;960.6641;;;;
2019/08/19 05:17:24;;;;;;;2.8;2.2;;;;;;;17.52;100;960.6908;;;;
2019/08/19 05:19:49;;;;;;;2.2;1.9;;;;;;;17.64;100;960.8137;;;;
2019/08/19 05:22:14;;;;;;;3.6;2.2;;;;;;;17.67;100;960.7723;;;;
2019/08/19 05:24:40;;;;;;;4;2.3;;;;;;;17.77;100;960.7709;;;;
2019/08/19 05:27:05;;;;;;;3.1;2.4;;;;;;;17.61;100;960.7866;;;;
2019/08/19 05:29:30;;;;;;;2.5;2;;;;;;;17.59;100;960.8413;;;;
2019/08/19 05:31:55;;;;;;;2.5;2;;;;;;;17.7;100;960.9756;;;;
2019/08/19 05:34:20;;;;;;;2.7;2.1;;;;;;;17.72;100;960.9666;;;;
2019/08/19 05:36:45;;;;;;;2.7;1.9;;;;;;;17.74;100;960.9665;;;;
2019/08/19 05:39:10;;;;;;;4.4;2.1;;;;;;;17.78;100;961.0027;;;;
2019/08/19 05:41:35;;;;;;;3.2;2.1;;;;;;;17.75;100;961.0183;;;;
2019/08/19 05:44:00;;;;;;;2.9;2;;;;;;;17.75;100;961.0859;;;;
2019/08/19 05:46:25;;;;;;;4;2;;;;;;;17.74;100;961.1799;;;;
2019/08/19 05:48:50;;;;;;;3.4;2.1;;;;;;;17.74;100;961.312;;;;
2019/08/19 05:51:16;;;;;;;2.8;1.9;;;;;;;17.78;100;961.3837;;;;
2019/08/19 05:53:41;;;;;;;4.7;2;;;;;;;17.7;100;961.4299;;;;
2019/08/19 05:56:06;;;;;;;2.5;1.9;;;;;;;17.71;100;961.4844;;;;
2019/08/19 05:58:31;;;;;;;2.9;1.8;;;;;;;17.79;100;961.4947;;;;
2019/08/19 06:00:56;;;;;;;2.7;2;;;;;;;17.79;100;961.5261;;;;
2019/08/19 06:03:21;;;;;;;3;1.8;;;;;;;17.82;99.78516;961.5391;;;;
2019/08/19 06:05:46;;;;;;;3.2;2;;;;;;;17.86;100;961.5703;;;;
2019/08/19 06:08:11;;;;;;;3.9;1.7;;;;;;;17.9;99.42676;961.5907;;;;
2019/08/19 06:10:36;;;;;;;3.6;2;;;;;;;17.92;100;961.6894;;;;
2019/08/19 06:13:01;;;;;;;2.9;1.9;;;;;;;17.89;99.50879;961.6609;;;;
2019/08/19 06:15:26;;;;;;;3.7;1.9;;;;;;;17.95;100;961.6769;;;;
2019/08/19 06:17:51;;;;;;;2.9;1.9;;;;;;;17.91;99.53418;961.6976;;;;
2019/08/19 06:20:17;;;;;;;3.3;1.9;;;;;;;17.95;99.84863;961.6664;;;;
2019/08/19 06:22:42;;;;;;;3.1;1.8;;;;;;;17.95;99.1582;961.7034;;;;
2019/08/19 06:25:07;;;;;;;3.1;1.9;;;;;;;18.01;100;961.7014;;;;
2019/08/19 06:27:32;;;;;;;3.5;2;;;;;;;18.05;99.98633;961.725;;;;
2019/08/19 06:29:57;;;;;;;2.1;1.8;;;;;;;18.09;98.6377;961.7461;;;;
2019/08/19 06:32:22;;;;;;;3.7;2.1;;;;;;;18.12;99.60645;961.7608;;;;
2019/08/19 06:34:47;;;;;;;3.4;2.1;;;;;;;18.07;98.96191;961.7445;;;;
2019/08/19 06:37:12;;;;;;;4.8;2.2;;;;;;;18.09;98.09961;961.6949;;;;
2019/08/19 06:39:37;;;;;;;3.7;2.1;;;;;;;18.1;97.57617;961.7445;;;;
2019/08/19 06:42:02;;;;;;;2.8;2.1;;;;;;;18.1;97.65625;961.6783;;;;
2019/08/19 06:44:27;;;;;;;4.9;2;;;;;;;18.17;97.75391;961.6614;;;;
2019/08/19 06:46:53;;;;;;;3.7;2;;;;;;;18.17;98.30469;961.6722;;;;
2019/08/19 06:49:18;;;;;;;3.2;1.8;;;;;;;18.21;97.77637;961.633;;;;
2019/08/19 06:51:43;;;;;;;2.5;1.9;;;;;;;18.2;98.41797;961.6001;;;;
2019/08/19 06:54:08;;;;;;;4;2.2;;;;;;;18.2;98.79102;961.5458;;;;
2019/08/19 06:56:33;;;;;;;3.8;2.3;;;;;;;18.22;99.35938;961.5497;;;;
2019/08/19 06:58:58;;;;;;;4.1;2.3;;;;;;;18.23;100;961.4836;;;;
2019/08/19 07:01:23;;;;;;;3.4;2.2;;;;;;;18.19;100;961.3973;;;;
2019/08/19 07:03:48;;;;;;;7.1;2.4;;;;;;;18.21;100;961.4002;;;;
2019/08/19 07:06:13;;;;;;;3.2;2;;;;;;;18.22;100;961.3567;;;;
2019/08/19 07:08:39;;;;;;;4.6;2.3;;;;;;;18.23;100;961.3705;;;;
2019/08/19 07:11:03;;;;;;;7.6;2.5;;;;;;;18.28;100;961.423;;;;
2019/08/19 07:13:29;;;;;;;7.1;2.6;;;;;;;18.34;100;961.3731;;;;
2019/08/19 07:15:54;;;;;;;5.5;2.3;;;;;;;18.39;100;961.3287;;;;
2019/08/19 07:18:19;;;;;;;4.6;2.4;;;;;;;18.45;100;961.3225;;;;
2019/08/19 07:20:44;;;;;;;4.4;2.2;;;;;;;18.48;98.83203;961.413;;;;
2019/08/19 07:23:09;;;;;;;3.5;1.9;;;;;;;18.49;96.8418;961.4328;;;;
2019/08/19 07:25:34;;;;;;;3.1;2;;;;;;;18.54;95.84277;961.429;;;;
2019/08/19 07:27:59;;;;;;;3.5;1.7;;;;;;;18.55;97.53711;961.3753;;;;
2019/08/19 07:30:24;;;;;;;4.1;2;;;;;;;18.48;99.06641;961.3906;;;;
2019/08/19 07:32:50;;;;;;;2.7;1.6;;;;;;;18.46;97.04688;961.4389;;;;
2019/08/19 07:35:15;;;;;;;2.8;1.6;;;;;;;18.45;95.64844;961.5296;;;;
2019/08/19 07:37:40;;;;;;;3.6;1.6;;;;;;;18.44;95.94141;961.58;;;;
2019/08/19 07:40:05;;;;;;;2.9;1.7;;;;;;;18.49;99.80664;961.5352;;;;
2019/08/19 07:42:30;;;;;;;2.4;1.8;;;;;;;18.48;100;961.5945;;;;
2019/08/19 07:44:55;;;;;;;2.2;1.5;;;;;;;18.48;97.56641;961.4814;;;;
2019/08/19 07:47:20;;;;;;;2.9;1.7;;;;;;;18.48;97.4375;961.3864;;;;
2019/08/19 07:49:46;;;;;;;1.7;1.6;;;;;;;18.47;98.03516;961.5417;;;;
2019/08/19 07:52:11;;;;;;;2.9;1.8;;;;;;;18.51;98.63867;961.7916;;;;
2019/08/19 07:54:36;;;;;;;2;1.5;;;;;;;18.6;97.94336;961.747;;;;
2019/08/19 07:57:02;;;;;;;1.9;1.5;;;;;;;18.68;98.60645;961.6786;;;;
2019/08/19 07:59:27;;;;;;;2.3;1.4;;;;;;;18.79;97.81152;961.7366;;;;
2019/08/19 08:01:52;;;;;;;2.5;1.5;;;;;;;18.91;98.08398;961.7554;;;;
2019/08/19 08:04:18;;;;;;;1.6;1.3;;;;;;;18.95;95.57129;961.7177;;;;
2019/08/19 08:06:43;;;;;;;2;1.3;;;;;;;18.98;94.9668;961.704;;;;
2019/08/19 08:09:08;;;;;;;3.7;1.5;;;;;;;19;94.25488;961.6594;;;;
2019/08/19 08:11:33;;;;;;;2.1;1.7;;;;;;;18.98;94.47363;961.6711;;;;
2019/08/19 08:13:58;;;;;;;3.3;1.7;;;;;;;19.03;94.76563;961.7637;;;;
2019/08/19 08:16:23;;;;;;;2.8;1.7;;;;;;;19;93.62109;961.7486;;;;
2019/08/19 08:18:48;;;;;;;2;1.5;;;;;;;19.06;93.19824;961.7761;;;;
2019/08/19 08:21:13;;;;;;;2.4;1.6;;;;;;;19.05;93.42188;961.8594;;;;
2019/08/19 08:23:38;;;;;;;2.3;1.5;;;;;;;19.12;94.54004;961.9092;;;;
2019/08/19 08:26:03;;;;;;;2.5;1.6;;;;;;;19.18;93.88281;961.8873;;;;
2019/08/19 08:28:28;;;;;;;2.9;1.6;;;;;;;19.29;94.99707;961.9023;;;;
2019/08/19 08:30:54;;;;;;;2.1;1.7;;;;;;;19.31;92.12598;961.9443;;;;
2019/08/19 08:33:19;;;;;;;2;1.3;;;;;;;19.37;93.54883;962.0402;;;;
2019/08/19 08:35:44;;;;;;;2;1.5;;;;;;;19.51;94.96289;962.0247;;;;
2019/08/19 08:38:10;;;;;;;2.3;1.4;;;;;;;19.49;90.78906;961.9695;;;;
2019/08/19 08:40:35;;;;;;;1.5;1.4;;;;;;;19.52;91.21973;961.9699;;;;
2019/08/19 08:43:00;;;;;;;2.2;1.4;;;;;;;19.57;92.12207;962.0355;;;;
2019/08/19 08:45:26;;;;;;;2.7;1.3;;;;;;;19.52;91.66602;962.0906;;;;
2019/08/19 08:47:51;;;;;;;2.4;1.6;;;;;;;19.57;91.0293;962.0959;;;;
2019/08/19 08:50:16;;;;;;;2.2;1.5;;;;;;;19.67;92.02441;962.1189;;;;
2019/08/19 08:52:41;;;;;;;4;1.4;;;;;;;19.65;91.03223;962.1085;;;;
2019/08/19 08:55:07;;;;;;;2.6;1.2;;;;;;;19.75;92.61719;962.1222;;;;
2019/08/19 08:57:32;;;;;;;2.9;1.4;;;;;;;19.76;90.85645;962.193;;;;
2019/08/19 08:59:57;;;;;;;1.4;1.3;;;;;;;19.71;90.80957;962.1423;;;;
2019/08/19 09:02:22;;;;;;;2.6;1.5;;;;;;;19.68;91.50977;962.151;;;;
2019/08/19 09:04:47;;;;;;;2.2;1.5;;;;;;;19.74;92.06348;961.9833;;;;
2019/08/19 09:07:12;;;;;;;1.6;1.5;;;;;;;19.75;93.40527;961.9072;;;;
2019/08/19 09:09:37;;;;;;;2.2;1.4;;;;;;;19.75;95.47363;961.8334;;;;
2019/08/19 09:12:02;;;;;;;2.2;1.6;;;;;;;19.8;95.12109;961.8954;;;;
2019/08/19 09:14:28;;;;;;;2.5;1.3;;;;;;;19.79;90.30957;961.9734;;;;
2019/08/19 09:16:53;;;;;;;2.7;1.4;;;;;;;19.9;93.87012;961.9672;;;;
2019/08/19 09:19:18;;;;;;;2.9;1.4;;;;;;;19.98;92.13574;961.9825;;;;
2019/08/19 09:21:43;;;;;;;1.8;1.3;;;;;;;20.08;89.04102;961.9794;;;;
2019/08/19 09:24:09;;;;;;;3;1.7;;;;;;;20.18;88.10547;962.0848;;;;
2019/08/19 09:26:34;;;;;;;1.9;1.3;;;;;;;20.24;90.40137;962.1797;;;;
2019/08/19 09:28:59;;;;;;;1.9;1.4;;;;;;;20.2;88.72266;962.2029;;;;
2019/08/19 09:31:24;;;;;;;2.1;1.2;;;;;;;20.11;89.50488;962.166;;;;
2019/08/19 09:33:50;;;;;;;3.4;2.2;;;;;;;20.12;89.41309;962.1411;;;;
2019/08/19 09:36:15;;;;;;;2.8;1.7;;;;;;;20.16;87.82031;962.1611;;;;
2019/08/19 09:38:40;;;;;;;4.6;3.6;;;;;;;20.07;89.21582;962.1434;;;;
2019/08/19 09:41:05;;;;;;;2.8;1.4;;;;;;;20.13;88.32031;962.0837;;;;
2019/08/19 09:43:30;;;;;;;4;1.6;;;;;;;20.17;89.82324;962.0179;;;;
2019/08/19 09:48:20;;;;;;;1.6;1.2;;;;;;;20.11;91.25781;961.9475;;;;
2019/08/19 09:50:45;;;;;;;2.4;1.4;;;;;;;20.21;89.24023;961.9727;;;;
2019/08/19 09:53:11;;;;;;;1.6;1.4;;;;;;;20.37;88.29785;962.028;;;;
2019/08/19 09:55:36;;;;;;;2.9;1.9;;;;;;;20.35;87.22168;961.9483;;;;
2019/08/19 09:58:01;;;;;;;2.7;1.5;;;;;;;20.35;86.4707;961.9664;;;;
2019/08/19 10:00:26;;;;;;;1.8;1.5;;;;;;;20.53;87.01172;962.0119;;;;
2019/08/19 10:02:54;;;;;;;1.5;1.2;;;;;;;20.66;86.69434;961.9626;;;;
2019/08/19 10:05:20;;;;;;;1.7;1.2;;;;;;;20.84;85.9873;962.025;;;;
2019/08/19 10:07:45;;;;;;;1.7;1.2;;;;;;;20.91;85.17676;962.1007;;;;
2019/08/19 10:10:10;;;;;;;1.8;1.3;;;;;;;20.88;84.52344;962.0275;;;;
2019/08/19 10:12:35;;;;;;;1.8;1.3;;;;;;;20.82;84.68945;961.9889;;;;
2019/08/19 10:15:00;;;;;;;1.7;1.2;;;;;;;20.96;84.96289;962.0883;;;;
2019/08/19 10:17:25;;;;;;;1.8;1.2;;;;;;;21.08;85.18555;962.0505;;;;
2019/08/19 10:19:50;;;;;;;2.1;1.2;;;;;;;21.12;85.19434;962.0094;;;;
2019/08/19 10:22:15;;;;;;;1.7;1.3;;;;;;;21.14;82.82813;962.0106;;;;
2019/08/19 10:24:40;;;;;;;1.9;1.2;;;;;;;21;81.88379;961.9808;;;;
2019/08/19 10:27:05;;;;;;;1.8;1.2;;;;;;;21.14;82.33301;961.9507;;;;
2019/08/19 10:29:30;;;;;;;1.4;1.2;;;;;;;21.37;81.60938;961.9856;;;;
2019/08/19 10:31:56;;;;;;;2.3;1.4;;;;;;;21.31;81.42188;962.0022;;;;
2019/08/19 10:34:21;;;;;;;1.9;1.4;;;;;;;21.39;81.41016;961.9695;;;;
2019/08/19 10:36:46;;;;;;;1.3;1.2;;;;;;;21.38;79.80469;961.9855;;;;
2019/08/19 10:39:12;;;;;;;1.9;1.7;;;;;;;21.43;80.93652;962.069;;;;
2019/08/19 10:41:37;;;;;;;2.4;1.6;;;;;;;21.35;80.51855;962.0148;;;;
2019/08/19 10:44:02;;;;;;;3.4;1.6;;;;;;;21.38;80.90332;962.104;;;;
2019/08/19 10:46:27;;;;;;;1.4;1.2;;;;;;;21.49;80.65137;962.0988;;;;
2019/08/19 10:48:53;;;;;;;1.9;1.4;;;;;;;21.52;78.88574;962.1505;;;;
2019/08/19 10:51:18;;;;;;;1.7;1.5;;;;;;;21.57;79.14355;962.1453;;;;
2019/08/19 10:53:43;;;;;;;1.5;1.3;;;;;;;21.52;77.90625;962.2523;;;;
2019/08/19 10:56:08;;;;;;;1.7;1.5;;;;;;;21.47;79.10254;962.2599;;;;
2019/08/19 10:58:33;;;;;;;2.2;1.8;;;;;;;21.5;78.94141;962.2692;;;;
2019/08/19 11:00:58;;;;;;;3;1.5;;;;;;;21.43;78.46875;962.3105;;;;
2019/08/19 11:03:23;;;;;;;1.5;1.4;;;;;;;21.53;78.02734;962.3044;;;;
2019/08/19 11:05:48;;;;;;;1.5;1.3;;;;;;;21.46;78.42676;962.3092;;;;
2019/08/19 11:08:13;;;;;;;1.6;1.5;;;;;;;21.29;79.29395;962.3234;;;;
2019/08/19 11:10:39;;;;;;;2.7;1.3;;;;;;;21.23;78.88184;962.2849;;;;
2019/08/19 11:13:04;;;;;;;2.5;1.2;;;;;;;21.45;79.42969;962.2919;;;;
2019/08/19 11:15:29;;;;;;;1.5;1.2;;;;;;;21.41;79.40918;962.2659;;;;
2019/08/19 11:17:55;;;;;;;1.6;1.3;;;;;;;21.5;78.55273;962.2377;;;;
2019/08/19 11:20:20;;;;;;;2;1.3;;;;;;;21.61;76.96582;962.209;;;;
2019/08/19 11:22:45;;;;;;;1.4;1.2;;;;;;;21.72;75.52246;962.1853;;;;
2019/08/19 11:25:11;;;;;;;1.5;1.2;;;;;;;21.76;75.24512;962.1845;;;;
2019/08/19 11:27:36;;;;;;;2;1.5;;;;;;;21.73;75.42773;962.2458;;;;
2019/08/19 11:30:01;;;;;;;1.3;1.2;;;;;;;21.83;75.97949;962.24;;;;
2019/08/19 11:32:27;;;;;;;1.4;1.3;;;;;;;21.79;77.98926;962.1841;;;;
2019/08/19 11:34:52;;;;;;;1.7;1.4;;;;;;;21.91;75.30664;962.2395;;;;
2019/08/19 11:37:17;;;;;;;1.6;1.1;;;;;;;21.96;75.71582;962.2933;;;;
2019/08/19 11:39:42;;;;;;;1.3;1.2;;;;;;;22.06;76.25293;962.2438;;;;
2019/08/19 11:42:07;;;;;;;2;1.3;;;;;;;22.11;75.29297;962.2419;;;;
2019/08/19 11:44:32;;;;;;;1.9;1.4;;;;;;;22.05;75.54395;962.2654;;;;
2019/08/19 11:46:58;;;;;;;4.3;1.3;;;;;;;22.1;75.08008;962.29;;;;
2019/08/19 11:49:23;;;;;;;1.9;1.6;;;;;;;22.04;75.70605;962.2732;;;;
2019/08/19 11:51:48;;;;;;;1.6;1.3;;;;;;;22.1;75.19824;962.2916;;;;
2019/08/19 11:54:21;;;;;;;2.3;1.2;;;;;;;22.32;73.42578;962.2598;;;;
2019/08/19 11:56:39;;;;;;;2.3;1.2;;;;;;;22.29;75.5;962.1909;;;;
2019/08/19 11:59:04;;;;;;;1.4;1.2;;;;;;;22.47;74.30078;962.2456;;;;
2019/08/19 12:01:32;;;;;;;2.3;1.2;;;;;;;22.72;74.15527;962.2961;;;;
2019/08/19 12:03:54;;;;;;;1.2;1.1;;;;;;;22.42;71.86914;962.2848;;;;
2019/08/19 12:06:19;;;;;;;1.5;1.1;;;;;;;22.55;73.53418;962.2155;;;;
2019/08/19 12:08:44;;;;;;;3.2;1.7;;;;;;;22.71;72.85059;962.298;;;;
2019/08/19 12:11:09;;;;;;;1.7;1.2;;;;;;;22.69;71.23828;962.2842;;;;
2019/08/19 12:13:35;;;;;;;2.7;1.1;;;;;;;22.71;70.79004;962.2933;;;;
2019/08/19 12:16:00;;;;;;;2.7;1.2;;;;;;;22.74;71.81543;962.3147;;;;
2019/08/19 12:18:25;;;;;;;3.2;1.4;;;;;;;22.66;73.39941;962.3056;;;;
2019/08/19 12:20:50;;;;;;;2.1;1.2;;;;;;;22.6;73.85059;962.3347;;;;
2019/08/19 12:23:16;;;;;;;1.8;1.5;;;;;;;22.67;73.41309;962.3645;;;;
2019/08/19 12:25:41;;;;;;;2.1;1.2;;;;;;;22.87;70.92383;962.3181;;;;
2019/08/19 12:28:06;;;;;;;1.3;1.1;;;;;;;23.09;70.76855;962.3412;;;;
2019/08/19 12:30:32;;;;;;;1.9;1.1;;;;;;;23.17;72.03906;962.3273;;;;
2019/08/19 12:32:56;;;;;;;2.2;1.1;;;;;;;23.14;70.25586;962.2701;;;;
2019/08/19 12:35:22;;;;;;;1.9;1.6;;;;;;;23.25;69.97852;962.2706;;;;
2019/08/19 12:37:47;;;;;;;1.2;0.9;;;;;;;23.54;69.66797;962.2202;;;;
2019/08/19 12:42:37;;;;;;;2.8;1;;;;;;;23.51;67.53027;962.2594;;;;
2019/08/19 12:45:02;;;;;;;1.3;1;;;;;;;23.42;67.93164;962.2644;;;;
2019/08/19 12:47:27;;;;;;;2.4;1.1;;;;;;;23.75;67.625;962.2902;;;;
2019/08/19 12:49:59;;;;;;;1.4;1;;;;;;;23.96;67.45508;962.3527;;;;
2019/08/19 12:52:18;;;;;;;1.2;0.8;;;;;;;24.01;65.43262;962.3527;;;;
2019/08/19 12:54:43;;;;;;;1.9;1.3;;;;;;;23.75;67.79102;962.3194;;;;
2019/08/19 12:57:08;;;;;;;2.4;1.2;;;;;;;23.63;67.79688;962.3624;;;;
2019/08/19 12:59:33;;;;;;;1.9;0.9;;;;;;;23.44;68.14746;962.3593;;;;
2019/08/19 13:01:59;;;;;;;2.2;0.9;;;;;;;23.48;69.71875;962.3734;;;;
2019/08/19 13:04:24;;;;;;;1.1;1;;;;;;;23.46;69.2998;962.4529;;;;
2019/08/19 13:06:49;;;;;;;1.3;1;;;;;;;23.36;69.99512;962.4108;;;;
2019/08/19 13:09:15;;;;;;;0.8;0.8;;;;;;;23.39;68.94531;962.3931;;;;
2019/08/19 13:11:40;;;;;;;1;0.9;;;;;;;23.64;67.46582;962.4015;;;;
2019/08/19 13:14:05;;;;;;;1.4;1;;;;;;;23.5;67.69434;962.3186;;;;
2019/08/19 13:16:30;;;;;;;1.2;0.8;;;;;;;23.77;67.65234;962.3173;;;;
2019/08/19 13:18:56;;;;;;;1.4;0.9;;;;;;;24.08;66.14355;962.3283;;;;
2019/08/19 13:21:21;;;;;;;1.5;1.2;;;;;;;24.08;64.66016;962.3566;;;;
2019/08/19 13:23:47;;;;;;;2;1;;;;;;;23.93;65.78906;962.396;;;;
2019/08/19 13:26:12;;;;;;;1.9;0.9;;;;;;;23.74;66.92383;962.4274;;;;
2019/08/19 13:28:37;;;;;;;1.1;1;;;;;;;23.66;65.32422;962.3518;;;;
2019/08/19 13:31:03;;;;;;;1.3;0.9;;;;;;;23.57;67.02832;962.3967;;;;
2019/08/19 13:33:28;;;;;;;1.4;0.8;;;;;;;23.61;67.49707;962.4739;;;;
2019/08/19 13:35:53;;;;;;;1.7;1;;;;;;;23.67;67.50684;962.4037;;;;
2019/08/19 13:38:18;;;;;;;2.4;1.1;;;;;;;23.63;69.8125;962.4481;;;;
2019/08/19 13:40:43;;;;;;;2.4;1.4;;;;;;;23.7;70.5459;962.4559;;;;
2019/08/19 13:43:08;;;;;;;1.2;1.1;;;;;;;23.6;69.53516;962.4131;;;;
2019/08/19 13:45:33;;;;;;;2.3;0.9;;;;;;;23.54;69.77441;962.3184;;;;
2019/08/19 13:47:59;;;;;;;2.5;1.3;;;;;;;23.4;71.59082;962.2598;;;;
2019/08/19 13:50:24;;;;;;;2.2;0.9;;;;;;;23.28;70.69238;962.1975;;;;
2019/08/19 13:52:49;;;;;;;2.2;1.1;;;;;;;23.51;69.22461;962.1984;;;;
2019/08/19 13:55:15;;;;;;;1.8;1;;;;;;;23.57;69.09082;962.1487;;;;
2019/08/19 13:57:40;;;;;;;2.5;1;;;;;;;23.45;69.15723;962.2202;;;;
2019/08/19 14:00:05;;;;;;;1.5;1;;;;;;;23.28;69.51953;962.2234;;;;
2019/08/19 14:02:31;;;;;;;1.4;1;;;;;;;23.32;69.51465;962.2737;;;;
2019/08/19 14:04:56;;;;;;;1.7;1.1;;;;;;;23.48;69.21973;962.2625;;;;
2019/08/19 14:07:21;;;;;;;2.2;1.3;;;;;;;23.45;70.70898;962.2028;;;;
2019/08/19 14:09:46;;;;;;;1.6;1.1;;;;;;;23.46;70.36621;962.2264;;;;
2019/08/19 14:12:11;;;;;;;3;1.3;;;;;;;23.3;71.50195;962.2134;;;;
2019/08/19 14:14:36;;;;;;;2.4;1.2;;;;;;;23.16;74.11035;962.178;;;;
2019/08/19 14:17:02;;;;;;;2.6;1.2;;;;;;;23.05;71.81738;962.2175;;;;
2019/08/19 14:19:27;;;;;;;2.8;1.3;;;;;;;23.18;72.11133;962.1776;;;;
2019/08/19 14:21:52;;;;;;;1.6;1.4;;;;;;;22.89;73.20117;962.1622;;;;
2019/08/19 14:24:17;;;;;;;3.3;1.4;;;;;;;22.86;74.30762;962.1955;;;;
2019/08/19 14:26:43;;;;;;;2.2;1.4;;;;;;;22.62;74.75195;962.2637;;;;
2019/08/19 14:31:15;;;;;;;2.9;1.6;;;;;;;22.32;76.07227;962.2899;;;;
2019/08/19 14:33:40;;;;;;;2.5;1.4;;;;;;;22.39;74.8916;962.2391;;;;
2019/08/19 14:36:05;;;;;;;2.5;1.4;;;;;;;22.39;75.64844;962.317;;;;
2019/08/19 14:38:30;;;;;;;2;1.6;;;;;;;22.44;74.56836;962.3442;;;;
2019/08/19 14:40:55;;;;;;;2.4;1.6;;;;;;;22.32;76.54688;962.4375;;;;
2019/08/19 14:43:21;;;;;;;2.5;1.5;;;;;;;22.5;74.86328;962.4227;;;;
2019/08/19 14:45:46;;;;;;;3.2;1.5;;;;;;;22.49;74.8125;962.4362;;;;
2019/08/19 14:48:11;;;;;;;1.7;1.2;;;;;;;22.6;74.06348;962.441;;;;
2019/08/19 14:50:36;;;;;;;2.5;1.4;;;;;;;22.72;73.81152;962.3958;;;;
2019/08/19 14:53:01;;;;;;;1.4;1.2;;;;;;;22.76;73.8877;962.3591;;;;
2019/08/19 14:55:26;;;;;;;2.4;1.2;;;;;;;22.88;73.85059;962.4192;;;;
2019/08/19 14:57:51;;;;;;;2.5;1.5;;;;;;;22.97;73.80469;962.4497;;;;
2019/08/19 15:00:16;;;;;;;2.4;1.3;;;;;;;23.17;70.99609;962.512;;;;
2019/08/19 15:02:41;;;;;;;2.1;1.5;;;;;;;23.2;70.30176;962.5546;;;;
2019/08/19 15:05:06;;;;;;;2.2;1.4;;;;;;;23.12;70.51367;962.5681;;;;
2019/08/19 15:07:31;;;;;;;2;1.3;;;;;;;22.79;71.19531;962.5378;;;;
2019/08/19 15:09:56;;;;;;;2.4;1.3;;;;;;;22.5;72.03516;962.5067;;;;
2019/08/19 15:12:21;;;;;;;2.1;1.1;;;;;;;22.42;72.96777;962.5524;;;;
2019/08/19 15:14:47;;;;;;;2.7;1.1;;;;;;;22.64;72.94727;962.5729;;;;
2019/08/19 15:17:12;;;;;;;1.8;1;;;;;;;22.81;71.76563;962.5533;;;;
2019/08/19 15:19:37;;;;;;;1.6;1.2;;;;;;;22.95;70.98438;962.4821;;;;
2019/08/19 15:22:02;;;;;;;1.5;1.1;;;;;;;22.94;69.94141;962.447;;;;
2019/08/19 15:24:27;;;;;;;1.6;1.2;;;;;;;22.82;71.53223;962.4713;;;;
2019/08/19 15:26:52;;;;;;;1.8;1.1;;;;;;;22.34;72.03418;962.5159;;;;